sensor_id;sensor_type;location;lat;lon;timestamp;P1;durP1;ratioP1;P2;durP2;ratioP2
66927;SDS011;59882;45.624;11.698;2022-09-27T00:00:36;17.05;;;12.70;;
66927;SDS011;59882;45.624;11.698;2022-09-27T00:03:02;18.05;;;13.00;;
66927;SDS011;59882;45.624;11.698;2022-09-27T00:05:28;17.60;;;13.87;;
66927;SDS011;59882;45.624;11.698;2022-09-27T00:07:54;18.67;;;13.65;;
66927;SDS011;59882;45.624;11.698;2022-09-27T00:10:20;19.58;;;14.95;;
66927;SDS011;59882;45.624;11.698;2022-09-27T00:12:45;16.47;;;13.73;;
66927;SDS011;59882;45.624;11.698;2022-09-27T00:15:12;17.83;;;13.90;;
66927;SDS011;59882;45.624;11.698;2022-09-27T00:17:38;17.67;;;14.35;;
66927;SDS011;59882;45.624;11.698;2022-09-27T00:20:05;17.00;;;13.13;;
66927;SDS011;59882;45.624;11.698;2022-09-27T00:22:31;14.95;;;12.55;;
66927;SDS011;59882;45.624;11.698;2022-09-27T00:24:57;15.07;;;12.48;;
66927;SDS011;59882;45.624;11.698;2022-09-27T00:27:23;15.63;;;12.27;;
66927;SDS011;59882;45.624;11.698;2022-09-27T00:29:50;16.05;;;11.63;;
66927;SDS011;59882;45.624;11.698;2022-09-27T00:32:16;14.70;;;11.50;;
66927;SDS011;59882;45.624;11.698;2022-09-27T00:34:42;16.23;;;11.47;;
66927;SDS011;59882;45.624;11.698;2022-09-27T00:37:08;13.98;;;10.45;;
66927;SDS011;59882;45.624;11.698;2022-09-27T00:39:35;14.77;;;10.23;;
66927;SDS011;59882;45.624;11.698;2022-09-27T00:42:02;13.60;;;10.45;;
66927;SDS011;59882;45.624;11.698;2022-09-27T00:49:46;12.30;;;9.60;;
66927;SDS011;59882;45.624;11.698;2022-09-27T00:52:17;13.15;;;10.70;;
66927;SDS011;59882;45.624;11.698;2022-09-27T00:54:52;13.52;;;10.15;;
66927;SDS011;59882;45.624;11.698;2022-09-27T00:57:22;13.55;;;10.30;;
66927;SDS011;59882;45.624;11.698;2022-09-27T00:59:50;13.73;;;10.90;;
66927;SDS011;59882;45.624;11.698;2022-09-27T01:02:19;14.38;;;10.60;;
66927;SDS011;59882;45.624;11.698;2022-09-27T01:04:44;13.18;;;11.23;;
66927;SDS011;59882;45.624;11.698;2022-09-27T01:07:11;13.70;;;11.18;;
66927;SDS011;59882;45.624;11.698;2022-09-27T01:09:37;13.90;;;10.80;;
66927;SDS011;59882;45.624;11.698;2022-09-27T01:12:22;14.02;;;11.32;;
66927;SDS011;59882;45.624;11.698;2022-09-27T01:33:48;18.33;;;15.67;;
66927;SDS011;59882;45.624;11.698;2022-09-27T01:42:19;19.92;;;16.17;;
66927;SDS011;59882;45.624;11.698;2022-09-27T01:47:44;18.03;;;15.23;;
66927;SDS011;59882;45.624;11.698;2022-09-27T01:50:15;21.48;;;15.88;;
66927;SDS011;59882;45.624;11.698;2022-09-27T01:53:00;19.95;;;16.48;;
66927;SDS011;59882;45.624;11.698;2022-09-27T01:55:34;20.33;;;15.88;;
66927;SDS011;59882;45.624;11.698;2022-09-27T01:58:12;17.95;;;14.88;;
66927;SDS011;59882;45.624;11.698;2022-09-27T02:00:50;17.77;;;14.20;;
66927;SDS011;59882;45.624;11.698;2022-09-27T02:03:23;17.65;;;13.63;;
66927;SDS011;59882;45.624;11.698;2022-09-27T02:05:56;16.33;;;13.40;;
66927;SDS011;59882;45.624;11.698;2022-09-27T02:08:37;18.90;;;14.98;;
66927;SDS011;59882;45.624;11.698;2022-09-27T02:11:17;20.40;;;16.60;;
66927;SDS011;59882;45.624;11.698;2022-09-27T02:13:48;20.57;;;16.57;;
66927;SDS011;59882;45.624;11.698;2022-09-27T02:19:26;13.52;;;11.25;;
66927;SDS011;59882;45.624;11.698;2022-09-27T02:24:46;14.13;;;9.65;;
66927;SDS011;59882;45.624;11.698;2022-09-27T02:30:23;11.10;;;8.77;;
66927;SDS011;59882;45.624;11.698;2022-09-27T02:32:42;10.65;;;9.02;;
66927;SDS011;59882;45.624;11.698;2022-09-27T02:35:16;10.27;;;8.55;;
66927;SDS011;59882;45.624;11.698;2022-09-27T02:37:46;11.00;;;8.52;;
66927;SDS011;59882;45.624;11.698;2022-09-27T02:40:12;10.80;;;8.67;;
66927;SDS011;59882;45.624;11.698;2022-09-27T02:42:38;11.65;;;8.07;;
66927;SDS011;59882;45.624;11.698;2022-09-27T02:45:06;11.85;;;8.93;;
66927;SDS011;59882;45.624;11.698;2022-09-27T02:50:40;10.27;;;8.33;;
66927;SDS011;59882;45.624;11.698;2022-09-27T03:04:28;9.83;;;8.10;;
66927;SDS011;59882;45.624;11.698;2022-09-27T03:07:15;9.57;;;8.00;;
66927;SDS011;59882;45.624;11.698;2022-09-27T03:09:45;8.85;;;7.13;;
66927;SDS011;59882;45.624;11.698;2022-09-27T03:12:12;9.65;;;7.57;;
66927;SDS011;59882;45.624;11.698;2022-09-27T03:14:39;10.83;;;8.13;;
66927;SDS011;59882;45.624;11.698;2022-09-27T03:17:05;9.23;;;7.43;;
66927;SDS011;59882;45.624;11.698;2022-09-27T03:19:31;9.80;;;7.65;;
66927;SDS011;59882;45.624;11.698;2022-09-27T03:21:56;11.50;;;7.50;;
66927;SDS011;59882;45.624;11.698;2022-09-27T03:24:22;8.95;;;7.30;;
66927;SDS011;59882;45.624;11.698;2022-09-27T03:26:48;8.03;;;7.00;;
66927;SDS011;59882;45.624;11.698;2022-09-27T03:29:14;8.48;;;6.97;;
66927;SDS011;59882;45.624;11.698;2022-09-27T03:31:40;9.65;;;7.32;;
66927;SDS011;59882;45.624;11.698;2022-09-27T03:34:06;8.33;;;6.60;;
66927;SDS011;59882;45.624;11.698;2022-09-27T03:36:32;9.40;;;6.00;;
66927;SDS011;59882;45.624;11.698;2022-09-27T03:38:57;8.10;;;6.57;;
66927;SDS011;59882;45.624;11.698;2022-09-27T03:41:23;9.80;;;6.53;;
66927;SDS011;59882;45.624;11.698;2022-09-27T03:43:49;7.65;;;6.20;;
66927;SDS011;59882;45.624;11.698;2022-09-27T03:46:14;8.30;;;6.23;;
66927;SDS011;59882;45.624;11.698;2022-09-27T03:48:40;7.82;;;6.35;;
66927;SDS011;59882;45.624;11.698;2022-09-27T03:51:07;10.00;;;6.20;;
66927;SDS011;59882;45.624;11.698;2022-09-27T03:53:33;8.17;;;6.20;;
66927;SDS011;59882;45.624;11.698;2022-09-27T03:56:00;7.97;;;6.75;;
66927;SDS011;59882;45.624;11.698;2022-09-27T03:58:25;8.50;;;6.53;;
66927;SDS011;59882;45.624;11.698;2022-09-27T04:00:51;8.37;;;7.23;;
66927;SDS011;59882;45.624;11.698;2022-09-27T04:03:17;10.48;;;7.00;;
66927;SDS011;59882;45.624;11.698;2022-09-27T04:05:43;9.27;;;6.87;;
66927;SDS011;59882;45.624;11.698;2022-09-27T04:08:10;8.65;;;6.97;;
66927;SDS011;59882;45.624;11.698;2022-09-27T04:10:36;8.70;;;7.15;;
66927;SDS011;59882;45.624;11.698;2022-09-27T04:13:01;9.40;;;7.68;;
66927;SDS011;59882;45.624;11.698;2022-09-27T04:15:27;10.02;;;8.00;;
66927;SDS011;59882;45.624;11.698;2022-09-27T04:17:53;9.37;;;6.83;;
66927;SDS011;59882;45.624;11.698;2022-09-27T04:20:19;8.90;;;7.30;;
66927;SDS011;59882;45.624;11.698;2022-09-27T04:22:44;8.20;;;6.40;;
66927;SDS011;59882;45.624;11.698;2022-09-27T04:25:10;8.33;;;6.23;;
66927;SDS011;59882;45.624;11.698;2022-09-27T04:27:36;8.02;;;6.28;;
66927;SDS011;59882;45.624;11.698;2022-09-27T04:30:02;8.50;;;6.20;;
66927;SDS011;59882;45.624;11.698;2022-09-27T04:32:30;7.43;;;6.07;;
66927;SDS011;59882;45.624;11.698;2022-09-27T04:34:55;7.72;;;5.60;;
66927;SDS011;59882;45.624;11.698;2022-09-27T04:37:44;7.63;;;5.28;;
66927;SDS011;59882;45.624;11.698;2022-09-27T04:40:10;5.97;;;4.00;;
66927;SDS011;59882;45.624;11.698;2022-09-27T04:42:36;6.18;;;3.97;;
66927;SDS011;59882;45.624;11.698;2022-09-27T04:45:02;6.82;;;4.00;;
66927;SDS011;59882;45.624;11.698;2022-09-27T04:47:28;6.20;;;4.07;;
66927;SDS011;59882;45.624;11.698;2022-09-27T04:49:53;7.10;;;4.78;;
66927;SDS011;59882;45.624;11.698;2022-09-27T04:52:19;7.43;;;5.13;;
66927;SDS011;59882;45.624;11.698;2022-09-27T04:54:45;6.50;;;4.93;;
66927;SDS011;59882;45.624;11.698;2022-09-27T04:57:10;8.47;;;5.37;;
66927;SDS011;59882;45.624;11.698;2022-09-27T04:59:36;6.82;;;4.60;;
66927;SDS011;59882;45.624;11.698;2022-09-27T05:02:02;10.90;;;5.53;;
66927;SDS011;59882;45.624;11.698;2022-09-27T05:04:28;8.50;;;6.15;;
66927;SDS011;59882;45.624;11.698;2022-09-27T05:06:53;8.30;;;5.87;;
66927;SDS011;59882;45.624;11.698;2022-09-27T05:09:19;9.50;;;5.57;;
66927;SDS011;59882;45.624;11.698;2022-09-27T05:11:45;8.43;;;6.77;;
66927;SDS011;59882;45.624;11.698;2022-09-27T05:14:10;8.75;;;6.55;;
66927;SDS011;59882;45.624;11.698;2022-09-27T05:16:38;10.30;;;6.10;;
66927;SDS011;59882;45.624;11.698;2022-09-27T05:19:03;11.80;;;7.45;;
66927;SDS011;59882;45.624;11.698;2022-09-27T05:21:29;10.77;;;8.30;;
66927;SDS011;59882;45.624;11.698;2022-09-27T05:23:55;11.32;;;8.80;;
66927;SDS011;59882;45.624;11.698;2022-09-27T05:26:21;17.63;;;8.57;;
66927;SDS011;59882;45.624;11.698;2022-09-27T05:28:47;11.37;;;8.90;;
66927;SDS011;59882;45.624;11.698;2022-09-27T05:31:13;10.80;;;8.05;;
66927;SDS011;59882;45.624;11.698;2022-09-27T05:33:39;9.63;;;7.70;;
66927;SDS011;59882;45.624;11.698;2022-09-27T05:36:05;9.90;;;7.97;;
66927;SDS011;59882;45.624;11.698;2022-09-27T05:38:32;9.07;;;7.28;;
66927;SDS011;59882;45.624;11.698;2022-09-27T05:40:59;10.13;;;7.55;;
66927;SDS011;59882;45.624;11.698;2022-09-27T05:43:25;9.18;;;7.05;;
66927;SDS011;59882;45.624;11.698;2022-09-27T05:45:52;8.63;;;6.13;;
66927;SDS011;59882;45.624;11.698;2022-09-27T05:48:18;9.77;;;5.63;;
66927;SDS011;59882;45.624;11.698;2022-09-27T05:50:43;9.17;;;6.17;;
66927;SDS011;59882;45.624;11.698;2022-09-27T05:53:09;10.35;;;6.70;;
66927;SDS011;59882;45.624;11.698;2022-09-27T05:55:37;10.02;;;6.28;;
66927;SDS011;59882;45.624;11.698;2022-09-27T05:58:03;10.90;;;6.70;;
66927;SDS011;59882;45.624;11.698;2022-09-27T06:00:31;8.80;;;5.97;;
66927;SDS011;59882;45.624;11.698;2022-09-27T06:02:58;8.90;;;6.80;;
66927;SDS011;59882;45.624;11.698;2022-09-27T06:05:25;10.95;;;7.13;;
66927;SDS011;59882;45.624;11.698;2022-09-27T06:07:56;8.95;;;6.65;;
66927;SDS011;59882;45.624;11.698;2022-09-27T06:10:26;11.52;;;7.95;;
66927;SDS011;59882;45.624;11.698;2022-09-27T06:12:57;11.60;;;7.30;;
66927;SDS011;59882;45.624;11.698;2022-09-27T06:15:23;10.02;;;6.53;;
66927;SDS011;59882;45.624;11.698;2022-09-27T06:17:49;8.85;;;5.72;;
66927;SDS011;59882;45.624;11.698;2022-09-27T06:20:15;8.50;;;4.90;;
66927;SDS011;59882;45.624;11.698;2022-09-27T06:22:42;7.32;;;4.85;;
66927;SDS011;59882;45.624;11.698;2022-09-27T06:25:10;9.32;;;5.10;;
66927;SDS011;59882;45.624;11.698;2022-09-27T06:27:36;8.50;;;5.60;;
66927;SDS011;59882;45.624;11.698;2022-09-27T06:30:02;9.10;;;5.80;;
66927;SDS011;59882;45.624;11.698;2022-09-27T06:32:28;8.68;;;5.60;;
66927;SDS011;59882;45.624;11.698;2022-09-27T06:34:55;8.25;;;5.45;;
66927;SDS011;59882;45.624;11.698;2022-09-27T06:37:23;10.27;;;5.40;;
66927;SDS011;59882;45.624;11.698;2022-09-27T06:39:50;8.18;;;5.20;;
66927;SDS011;59882;45.624;11.698;2022-09-27T06:42:17;8.77;;;5.78;;
66927;SDS011;59882;45.624;11.698;2022-09-27T06:44:43;7.28;;;4.80;;
66927;SDS011;59882;45.624;11.698;2022-09-27T06:47:14;6.97;;;4.50;;
66927;SDS011;59882;45.624;11.698;2022-09-27T06:49:43;7.25;;;5.20;;
66927;SDS011;59882;45.624;11.698;2022-09-27T06:52:08;8.25;;;5.90;;
66927;SDS011;59882;45.624;11.698;2022-09-27T06:54:35;8.23;;;5.10;;
66927;SDS011;59882;45.624;11.698;2022-09-27T06:57:00;9.27;;;5.75;;
66927;SDS011;59882;45.624;11.698;2022-09-27T06:59:26;8.63;;;5.63;;
66927;SDS011;59882;45.624;11.698;2022-09-27T07:02:10;8.77;;;5.53;;
66927;SDS011;59882;45.624;11.698;2022-09-27T07:04:37;8.38;;;5.30;;
66927;SDS011;59882;45.624;11.698;2022-09-27T07:07:02;6.70;;;4.63;;
66927;SDS011;59882;45.624;11.698;2022-09-27T07:09:28;9.27;;;6.38;;
66927;SDS011;59882;45.624;11.698;2022-09-27T07:11:53;7.67;;;6.20;;
66927;SDS011;59882;45.624;11.698;2022-09-27T07:14:19;8.43;;;6.73;;
66927;SDS011;59882;45.624;11.698;2022-09-27T07:16:45;11.00;;;6.90;;
66927;SDS011;59882;45.624;11.698;2022-09-27T07:19:11;9.32;;;7.55;;
66927;SDS011;59882;45.624;11.698;2022-09-27T07:21:38;10.77;;;7.63;;
66927;SDS011;59882;45.624;11.698;2022-09-27T07:24:04;9.90;;;8.13;;
66927;SDS011;59882;45.624;11.698;2022-09-27T07:26:29;11.20;;;9.17;;
66927;SDS011;59882;45.624;11.698;2022-09-27T07:28:55;9.87;;;8.20;;
66927;SDS011;59882;45.624;11.698;2022-09-27T07:31:21;14.77;;;8.03;;
66927;SDS011;59882;45.624;11.698;2022-09-27T07:33:48;11.07;;;7.73;;
66927;SDS011;59882;45.624;11.698;2022-09-27T07:36:14;10.65;;;7.45;;
66927;SDS011;59882;45.624;11.698;2022-09-27T07:38:40;10.05;;;8.32;;
66927;SDS011;59882;45.624;11.698;2022-09-27T07:41:09;11.17;;;8.10;;
66927;SDS011;59882;45.624;11.698;2022-09-27T07:43:37;9.80;;;7.75;;
66927;SDS011;59882;45.624;11.698;2022-09-27T07:46:03;10.23;;;7.20;;
66927;SDS011;59882;45.624;11.698;2022-09-27T07:48:30;8.07;;;5.68;;
66927;SDS011;59882;45.624;11.698;2022-09-27T07:50:55;6.47;;;5.20;;
66927;SDS011;59882;45.624;11.698;2022-09-27T07:53:21;6.43;;;4.90;;
66927;SDS011;59882;45.624;11.698;2022-09-27T07:55:51;6.90;;;4.70;;
66927;SDS011;59882;45.624;11.698;2022-09-27T07:58:17;7.40;;;4.20;;
66927;SDS011;59882;45.624;11.698;2022-09-27T08:00:43;7.50;;;4.80;;
66927;SDS011;59882;45.624;11.698;2022-09-27T08:03:10;6.82;;;4.53;;
66927;SDS011;59882;45.624;11.698;2022-09-27T08:05:40;5.53;;;3.63;;
66927;SDS011;59882;45.624;11.698;2022-09-27T08:08:06;6.68;;;3.40;;
66927;SDS011;59882;45.624;11.698;2022-09-27T08:10:33;5.80;;;3.63;;
66927;SDS011;59882;45.624;11.698;2022-09-27T08:13:02;5.93;;;3.88;;
66927;SDS011;59882;45.624;11.698;2022-09-27T08:15:32;6.90;;;3.43;;
66927;SDS011;59882;45.624;11.698;2022-09-27T08:17:59;6.03;;;3.25;;
66927;SDS011;59882;45.624;11.698;2022-09-27T08:20:25;5.53;;;3.67;;
66927;SDS011;59882;45.624;11.698;2022-09-27T08:22:51;5.93;;;3.07;;
66927;SDS011;59882;45.624;11.698;2022-09-27T08:25:17;4.75;;;2.80;;
66927;SDS011;59882;45.624;11.698;2022-09-27T08:27:42;4.63;;;3.07;;
66927;SDS011;59882;45.624;11.698;2022-09-27T08:30:08;5.65;;;3.00;;
66927;SDS011;59882;45.624;11.698;2022-09-27T08:32:34;5.40;;;3.10;;
66927;SDS011;59882;45.624;11.698;2022-09-27T08:35:02;4.70;;;2.80;;
66927;SDS011;59882;45.624;11.698;2022-09-27T08:37:27;4.78;;;2.90;;
66927;SDS011;59882;45.624;11.698;2022-09-27T08:39:53;6.75;;;2.90;;
66927;SDS011;59882;45.624;11.698;2022-09-27T08:45:37;4.70;;;2.55;;
66927;SDS011;59882;45.624;11.698;2022-09-27T08:48:19;5.25;;;2.55;;
66927;SDS011;59882;45.624;11.698;2022-09-27T08:50:46;6.47;;;2.53;;
66927;SDS011;59882;45.624;11.698;2022-09-27T08:55:42;5.45;;;2.65;;
66927;SDS011;59882;45.624;11.698;2022-09-27T09:01:00;3.22;;;1.50;;
66927;SDS011;59882;45.624;11.698;2022-09-27T09:03:34;3.80;;;1.00;;
66927;SDS011;59882;45.624;11.698;2022-09-27T09:11:19;3.10;;;1.20;;
66927;SDS011;59882;45.624;11.698;2022-09-27T09:14:20;3.88;;;1.50;;
66927;SDS011;59882;45.624;11.698;2022-09-27T09:23:09;3.63;;;1.52;;
66927;SDS011;59882;45.624;11.698;2022-09-27T09:28:26;3.95;;;1.75;;
66927;SDS011;59882;45.624;11.698;2022-09-27T09:33:35;4.70;;;2.70;;
66927;SDS011;59882;45.624;11.698;2022-09-27T09:41:39;3.95;;;2.30;;
66927;SDS011;59882;45.624;11.698;2022-09-27T09:44:26;4.10;;;2.00;;
66927;SDS011;59882;45.624;11.698;2022-09-27T09:46:56;4.95;;;2.88;;
66927;SDS011;59882;45.624;11.698;2022-09-27T09:49:29;4.75;;;2.90;;
66927;SDS011;59882;45.624;11.698;2022-09-27T09:52:01;5.95;;;3.58;;
66927;SDS011;59882;45.624;11.698;2022-09-27T09:54:31;4.55;;;3.00;;
66927;SDS011;59882;45.624;11.698;2022-09-27T09:57:09;5.47;;;2.97;;
66927;SDS011;59882;45.624;11.698;2022-09-27T09:59:44;6.50;;;3.42;;
66927;SDS011;59882;45.624;11.698;2022-09-27T10:04:44;6.50;;;4.30;;
66927;SDS011;59882;45.624;11.698;2022-09-27T10:07:09;5.63;;;3.75;;
66927;SDS011;59882;45.624;11.698;2022-09-27T10:09:36;7.50;;;3.72;;
66927;SDS011;59882;45.624;11.698;2022-09-27T10:12:02;5.57;;;4.07;;
66927;SDS011;59882;45.624;11.698;2022-09-27T10:14:28;5.60;;;4.75;;
66927;SDS011;59882;45.624;11.698;2022-09-27T10:16:56;7.63;;;4.75;;
66927;SDS011;59882;45.624;11.698;2022-09-27T10:19:27;6.23;;;4.43;;
66927;SDS011;59882;45.624;11.698;2022-09-27T10:21:58;7.25;;;4.40;;
66927;SDS011;59882;45.624;11.698;2022-09-27T10:24:27;5.70;;;4.15;;
66927;SDS011;59882;45.624;11.698;2022-09-27T10:26:56;6.07;;;3.63;;
66927;SDS011;59882;45.624;11.698;2022-09-27T10:29:28;5.47;;;3.92;;
66927;SDS011;59882;45.624;11.698;2022-09-27T10:31:59;5.63;;;4.32;;
66927;SDS011;59882;45.624;11.698;2022-09-27T10:34:34;6.88;;;4.20;;
66927;SDS011;59882;45.624;11.698;2022-09-27T10:39:41;6.40;;;4.93;;
66927;SDS011;59882;45.624;11.698;2022-09-27T10:44:47;7.50;;;4.97;;
66927;SDS011;59882;45.624;11.698;2022-09-27T10:47:14;5.90;;;3.95;;
66927;SDS011;59882;45.624;11.698;2022-09-27T10:49:47;7.00;;;4.80;;
66927;SDS011;59882;45.624;11.698;2022-09-27T10:54:56;7.32;;;4.63;;
66927;SDS011;59882;45.624;11.698;2022-09-27T10:57:26;6.32;;;4.40;;
66927;SDS011;59882;45.624;11.698;2022-09-27T10:59:58;6.63;;;4.57;;
66927;SDS011;59882;45.624;11.698;2022-09-27T11:02:31;7.47;;;4.43;;
66927;SDS011;59882;45.624;11.698;2022-09-27T11:05:09;6.30;;;4.35;;
66927;SDS011;59882;45.624;11.698;2022-09-27T11:07:57;5.32;;;3.20;;
66927;SDS011;59882;45.624;11.698;2022-09-27T11:10:31;5.45;;;3.35;;
66927;SDS011;59882;45.624;11.698;2022-09-27T11:13:12;5.03;;;3.25;;
66927;SDS011;59882;45.624;11.698;2022-09-27T11:15:42;6.67;;;4.30;;
66927;SDS011;59882;45.624;11.698;2022-09-27T11:18:21;6.55;;;4.20;;
66927;SDS011;59882;45.624;11.698;2022-09-27T11:21:13;6.72;;;4.35;;
66927;SDS011;59882;45.624;11.698;2022-09-27T11:37:52;8.63;;;5.18;;
66927;SDS011;59882;45.624;11.698;2022-09-27T11:40:45;7.75;;;5.40;;
66927;SDS011;59882;45.624;11.698;2022-09-27T11:54:29;6.97;;;5.65;;
66927;SDS011;59882;45.624;11.698;2022-09-27T11:57:00;7.40;;;5.60;;
66927;SDS011;59882;45.624;11.698;2022-09-27T12:02:55;9.35;;;6.68;;
66927;SDS011;59882;45.624;11.698;2022-09-27T12:13:58;7.43;;;6.32;;
66927;SDS011;59882;45.624;11.698;2022-09-27T12:34:39;6.47;;;5.60;;
66927;SDS011;59882;45.624;11.698;2022-09-27T12:37:27;7.53;;;5.78;;
66927;SDS011;59882;45.624;11.698;2022-09-27T12:42:32;6.60;;;5.50;;
66927;SDS011;59882;45.624;11.698;2022-09-27T12:45:03;7.90;;;6.10;;
66927;SDS011;59882;45.624;11.698;2022-09-27T12:47:35;6.97;;;5.77;;
66927;SDS011;59882;45.624;11.698;2022-09-27T12:53:19;7.60;;;5.03;;
66927;SDS011;59882;45.624;11.698;2022-09-27T13:12:17;6.82;;;4.57;;
66927;SDS011;59882;45.624;11.698;2022-09-27T13:15:11;6.73;;;4.43;;
66927;SDS011;59882;45.624;11.698;2022-09-27T13:22:56;7.35;;;3.88;;
66927;SDS011;59882;45.624;11.698;2022-09-27T13:30:56;7.22;;;4.15;;
66927;SDS011;59882;45.624;11.698;2022-09-27T13:41:21;7.33;;;4.20;;
66927;SDS011;59882;45.624;11.698;2022-09-27T13:43:57;7.22;;;4.60;;
66927;SDS011;59882;45.624;11.698;2022-09-27T13:46:29;6.03;;;4.55;;
66927;SDS011;59882;45.624;11.698;2022-09-27T13:48:58;8.70;;;4.38;;
66927;SDS011;59882;45.624;11.698;2022-09-27T13:51:33;7.25;;;4.22;;
66927;SDS011;59882;45.624;11.698;2022-09-27T13:54:05;7.03;;;4.57;;
66927;SDS011;59882;45.624;11.698;2022-09-27T14:00:15;6.75;;;3.17;;
66927;SDS011;59882;45.624;11.698;2022-09-27T14:05:12;7.67;;;3.37;;
66927;SDS011;59882;45.624;11.698;2022-09-27T14:07:45;5.60;;;4.03;;
66927;SDS011;59882;45.624;11.698;2022-09-27T14:10:15;4.82;;;3.40;;
66927;SDS011;59882;45.624;11.698;2022-09-27T14:12:44;4.93;;;3.35;;
66927;SDS011;59882;45.624;11.698;2022-09-27T14:15:23;8.03;;;3.73;;
66927;SDS011;59882;45.624;11.698;2022-09-27T14:17:51;6.28;;;3.55;;
66927;SDS011;59882;45.624;11.698;2022-09-27T14:20:35;5.90;;;3.17;;
66927;SDS011;59882;45.624;11.698;2022-09-27T14:23:04;6.30;;;3.47;;
66927;SDS011;59882;45.624;11.698;2022-09-27T14:25:30;6.97;;;3.50;;
66927;SDS011;59882;45.624;11.698;2022-09-27T14:27:56;6.93;;;4.20;;
66927;SDS011;59882;45.624;11.698;2022-09-27T14:30:25;5.80;;;4.13;;
66927;SDS011;59882;45.624;11.698;2022-09-27T14:32:53;5.80;;;3.90;;
66927;SDS011;59882;45.624;11.698;2022-09-27T14:35:25;6.85;;;3.38;;
66927;SDS011;59882;45.624;11.698;2022-09-27T14:38:12;8.43;;;5.35;;
66927;SDS011;59882;45.624;11.698;2022-09-27T14:40:44;7.13;;;2.92;;
66927;SDS011;59882;45.624;11.698;2022-09-27T14:43:25;10.87;;;4.70;;
66927;SDS011;59882;45.624;11.698;2022-09-27T14:45:52;9.35;;;3.45;;
66927;SDS011;59882;45.624;11.698;2022-09-27T14:48:30;6.07;;;3.20;;
66927;SDS011;59882;45.624;11.698;2022-09-27T14:53:36;9.00;;;3.47;;
66927;SDS011;59882;45.624;11.698;2022-09-27T14:56:08;6.37;;;3.40;;
66927;SDS011;59882;45.624;11.698;2022-09-27T14:58:43;7.22;;;3.90;;
66927;SDS011;59882;45.624;11.698;2022-09-27T15:01:17;6.72;;;5.20;;
66927;SDS011;59882;45.624;11.698;2022-09-27T15:03:47;9.30;;;4.68;;
66927;SDS011;59882;45.624;11.698;2022-09-27T15:06:17;10.57;;;4.50;;
66927;SDS011;59882;45.624;11.698;2022-09-27T15:08:44;21.17;;;5.93;;
66927;SDS011;59882;45.624;11.698;2022-09-27T15:11:13;7.05;;;3.85;;
66927;SDS011;59882;45.624;11.698;2022-09-27T15:13:39;10.75;;;4.30;;
66927;SDS011;59882;45.624;11.698;2022-09-27T15:16:16;8.60;;;4.00;;
66927;SDS011;59882;45.624;11.698;2022-09-27T15:18:48;5.82;;;4.00;;
66927;SDS011;59882;45.624;11.698;2022-09-27T15:21:41;6.03;;;4.20;;
66927;SDS011;59882;45.624;11.698;2022-09-27T15:24:34;6.90;;;4.55;;
66927;SDS011;59882;45.624;11.698;2022-09-27T15:27:04;5.78;;;4.45;;
66927;SDS011;59882;45.624;11.698;2022-09-27T15:29:46;6.47;;;4.18;;
66927;SDS011;59882;45.624;11.698;2022-09-27T15:32:16;5.70;;;3.55;;
66927;SDS011;59882;45.624;11.698;2022-09-27T15:34:45;5.80;;;3.77;;
66927;SDS011;59882;45.624;11.698;2022-09-27T15:40:31;8.18;;;4.35;;
66927;SDS011;59882;45.624;11.698;2022-09-27T15:42:59;6.55;;;3.97;;
66927;SDS011;59882;45.624;11.698;2022-09-27T15:45:27;5.13;;;3.30;;
66927;SDS011;59882;45.624;11.698;2022-09-27T15:50:35;6.00;;;3.80;;
66927;SDS011;59882;45.624;11.698;2022-09-27T15:53:02;7.13;;;4.18;;
66927;SDS011;59882;45.624;11.698;2022-09-27T15:55:30;7.72;;;3.67;;
66927;SDS011;59882;45.624;11.698;2022-09-27T15:57:59;7.00;;;4.10;;
66927;SDS011;59882;45.624;11.698;2022-09-27T16:00:26;6.65;;;4.32;;
66927;SDS011;59882;45.624;11.698;2022-09-27T16:02:52;6.10;;;3.85;;
66927;SDS011;59882;45.624;11.698;2022-09-27T16:05:18;6.60;;;3.92;;
66927;SDS011;59882;45.624;11.698;2022-09-27T16:07:43;7.87;;;3.93;;
66927;SDS011;59882;45.624;11.698;2022-09-27T16:13:12;7.27;;;4.40;;
66927;SDS011;59882;45.624;11.698;2022-09-27T16:15:38;9.57;;;4.47;;
66927;SDS011;59882;45.624;11.698;2022-09-27T16:18:04;9.90;;;5.47;;
66927;SDS011;59882;45.624;11.698;2022-09-27T16:20:30;9.27;;;5.37;;
66927;SDS011;59882;45.624;11.698;2022-09-27T16:22:56;7.88;;;4.20;;
66927;SDS011;59882;45.624;11.698;2022-09-27T16:25:23;7.95;;;4.75;;
66927;SDS011;59882;45.624;11.698;2022-09-27T16:27:48;6.37;;;3.87;;
66927;SDS011;59882;45.624;11.698;2022-09-27T16:30:15;5.65;;;3.20;;
66927;SDS011;59882;45.624;11.698;2022-09-27T16:32:44;6.80;;;3.88;;
66927;SDS011;59882;45.624;11.698;2022-09-27T16:35:12;7.40;;;3.60;;
66927;SDS011;59882;45.624;11.698;2022-09-27T16:37:38;5.85;;;3.47;;
66927;SDS011;59882;45.624;11.698;2022-09-27T16:40:05;7.13;;;3.40;;
66927;SDS011;59882;45.624;11.698;2022-09-27T16:42:32;8.15;;;3.90;;
66927;SDS011;59882;45.624;11.698;2022-09-27T16:44:59;7.03;;;4.78;;
66927;SDS011;59882;45.624;11.698;2022-09-27T16:47:28;7.82;;;4.95;;
66927;SDS011;59882;45.624;11.698;2022-09-27T16:49:54;8.30;;;4.63;;
66927;SDS011;59882;45.624;11.698;2022-09-27T16:52:38;7.47;;;4.03;;
66927;SDS011;59882;45.624;11.698;2022-09-27T16:55:05;7.03;;;3.65;;
66927;SDS011;59882;45.624;11.698;2022-09-27T16:57:31;7.00;;;3.85;;
66927;SDS011;59882;45.624;11.698;2022-09-27T16:59:58;5.85;;;3.30;;
66927;SDS011;59882;45.624;11.698;2022-09-27T17:02:25;6.70;;;3.95;;
66927;SDS011;59882;45.624;11.698;2022-09-27T17:04:51;6.77;;;3.43;;
66927;SDS011;59882;45.624;11.698;2022-09-27T17:07:17;8.32;;;4.30;;
66927;SDS011;59882;45.624;11.698;2022-09-27T17:09:44;10.98;;;5.80;;
66927;SDS011;59882;45.624;11.698;2022-09-27T17:12:10;9.53;;;5.23;;
66927;SDS011;59882;45.624;11.698;2022-09-27T17:14:36;11.30;;;5.68;;
66927;SDS011;59882;45.624;11.698;2022-09-27T17:17:01;7.57;;;4.70;;
66927;SDS011;59882;45.624;11.698;2022-09-27T17:19:27;11.03;;;3.90;;
66927;SDS011;59882;45.624;11.698;2022-09-27T17:21:53;9.27;;;3.50;;
66927;SDS011;59882;45.624;11.698;2022-09-27T17:24:21;8.00;;;3.60;;
66927;SDS011;59882;45.624;11.698;2022-09-27T17:26:47;6.82;;;3.15;;
66927;SDS011;59882;45.624;11.698;2022-09-27T17:29:13;10.07;;;4.70;;
66927;SDS011;59882;45.624;11.698;2022-09-27T17:31:39;9.38;;;3.85;;
66927;SDS011;59882;45.624;11.698;2022-09-27T17:34:06;6.63;;;3.33;;
66927;SDS011;59882;45.624;11.698;2022-09-27T17:36:36;4.97;;;2.75;;
66927;SDS011;59882;45.624;11.698;2022-09-27T17:39:05;5.43;;;2.37;;
66927;SDS011;59882;45.624;11.698;2022-09-27T17:41:33;5.25;;;2.35;;
66927;SDS011;59882;45.624;11.698;2022-09-27T17:44:01;5.07;;;2.60;;
66927;SDS011;59882;45.624;11.698;2022-09-27T17:46:28;5.35;;;2.03;;
66927;SDS011;59882;45.624;11.698;2022-09-27T17:48:55;4.30;;;1.80;;
66927;SDS011;59882;45.624;11.698;2022-09-27T17:51:40;4.97;;;1.98;;
66927;SDS011;59882;45.624;11.698;2022-09-27T17:54:07;5.35;;;1.90;;
66927;SDS011;59882;45.624;11.698;2022-09-27T17:56:37;4.55;;;1.52;;
66927;SDS011;59882;45.624;11.698;2022-09-27T17:59:04;4.63;;;1.77;;
66927;SDS011;59882;45.624;11.698;2022-09-27T18:01:31;5.73;;;2.10;;
66927;SDS011;59882;45.624;11.698;2022-09-27T18:03:58;5.45;;;1.40;;
66927;SDS011;59882;45.624;11.698;2022-09-27T18:06:25;3.25;;;1.20;;
66927;SDS011;59882;45.624;11.698;2022-09-27T18:08:52;3.55;;;1.10;;
66927;SDS011;59882;45.624;11.698;2022-09-27T18:11:19;5.03;;;1.52;;
66927;SDS011;59882;45.624;11.698;2022-09-27T18:13:53;4.93;;;1.53;;